Time;durP1;ratioP1;P1;durP2;ratioP2;P2;SDS_P1;SDS_P2;PMS_P1;PMS_P2;Temp;Humidity;BMP_temperature;BMP_pressure;BME280_temperature;BME280_humidity;BME280_pressure;Samples;Min_cycle;Max_cycle;Signal;HPM_P1;HPM_P2
2022/03/23 00:00:04;;;;;;;12.82;5.63;;;27.10;99.90;;;;;;5024718;28;20479;-65
2022/03/23 00:02:31;;;;;;;9.27;5.15;;;27.50;99.90;;;;;;5020829;28;20026;-67
2022/03/23 00:04:58;;;;;;;9.40;4.70;;;27.80;99.90;;;;;;5022074;28;20410;-68
2022/03/23 00:07:25;;;;;;;8.10;4.68;;;28.00;99.90;;;;;;5022404;28;20036;-65
2022/03/23 00:09:52;;;;;;;10.25;5.43;;;28.10;99.90;;;;;;5020373;28;20500;-67
2022/03/23 00:12:19;;;;;;;11.20;5.15;;;28.30;99.90;;;;;;5024178;28;20090;-64
2022/03/23 00:14:46;;;;;;;11.68;5.00;;;28.20;99.90;;;;;;5024560;28;20022;-64
2022/03/23 00:17:13;;;;;;;14.05;5.28;;;28.10;99.90;;;;;;5020282;28;20042;-65
2022/03/23 00:19:40;;;;;;;9.68;4.82;;;28.20;99.90;;;;;;5021831;28;20029;-68
2022/03/23 00:22:07;;;;;;;8.93;4.75;;;28.60;99.90;;;;;;5021704;28;20022;-64
2022/03/23 00:24:34;;;;;;;7.95;4.25;;;29.00;99.90;;;;;;5022827;28;20017;-64
2022/03/23 00:27:01;;;;;;;10.63;5.03;;;29.30;99.90;;;;;;5019684;28;20090;-69
2022/03/23 00:29:28;;;;;;;13.15;5.60;;;29.50;99.90;;;;;;5020319;28;20071;-68
2022/03/23 00:31:55;;;;;;;10.40;5.38;;;29.30;99.90;;;;;;5022156;28;20451;-68
2022/03/23 00:34:22;;;;;;;7.78;4.70;;;28.90;99.90;;;;;;5022429;28;20028;-68
2022/03/23 00:36:50;;;;;;;9.55;4.95;;;28.70;99.90;;;;;;5018510;28;20038;-66
2022/03/23 00:39:20;;;;;;;9.80;4.90;;;28.40;99.90;;;;;;5022082;28;20052;-68
2022/03/23 00:41:49;;;;;;;7.47;4.20;;;28.20;99.90;;;;;;5026614;28;20098;-65
2022/03/23 00:44:17;;;;;;;9.25;4.68;;;28.10;99.90;;;;;;5024365;28;20034;-69
2022/03/23 00:46:44;;;;;;;10.25;4.57;;;28.20;99.90;;;;;;5025784;28;20034;-66
2022/03/23 00:49:11;;;;;;;10.30;4.43;;;28.40;99.90;;;;;;5026996;28;20509;-68
2022/03/23 00:51:38;;;;;;;11.00;3.97;;;28.50;99.90;;;;;;5028470;28;20168;-67
2022/03/23 00:54:05;;;;;;;8.40;4.20;;;28.40;99.90;;;;;;5028366;28;20595;-67
2022/03/23 00:56:32;;;;;;;7.85;3.95;;;28.30;99.90;;;;;;5029277;28;20025;-65
2022/03/23 00:58:59;;;;;;;12.38;4.25;;;28.30;99.90;;;;;;5022558;28;20029;-65
2022/03/23 01:01:27;;;;;;;11.10;4.05;;;28.60;99.90;;;;;;5020904;28;20026;-65
2022/03/23 01:03:54;;;;;;;10.02;3.90;;;28.90;99.90;;;;;;5029265;28;20021;-67
2022/03/23 01:06:21;;;;;;;10.63;4.07;;;29.20;99.90;;;;;;5027685;28;20037;-66
2022/03/23 01:08:49;;;;;;;9.18;4.32;;;29.30;99.90;;;;;;5022116;28;20528;-68
2022/03/23 01:11:16;;;;;;;8.60;3.45;;;29.10;99.90;;;;;;5013991;28;20037;-68
2022/03/23 01:13:43;;;;;;;9.93;4.28;;;29.00;99.90;;;;;;5028860;28;20018;-68
2022/03/23 01:16:10;;;;;;;11.30;4.05;;;28.70;99.90;;;;;;5024937;28;20480;-67
2022/03/23 01:18:37;;;;;;;10.63;4.38;;;28.40;99.90;;;;;;5023668;28;20087;-68
2022/03/23 01:21:04;;;;;;;10.82;4.10;;;28.10;99.90;;;;;;5024778;28;20059;-68
2022/03/23 01:23:31;;;;;;;11.98;4.53;;;28.00;99.90;;;;;;5023113;28;20108;-67
2022/03/23 01:25:58;;;;;;;8.65;3.78;;;27.90;99.90;;;;;;5024452;28;20086;-66
2022/03/23 01:28:25;;;;;;;9.10;3.75;;;27.90;99.90;;;;;;5026022;28;20079;-65
2022/03/23 01:30:52;;;;;;;10.80;4.55;;;27.60;99.90;;;;;;5030464;28;20017;-65
2022/03/23 01:33:19;;;;;;;12.70;4.13;;;27.40;99.90;;;;;;5030144;28;20052;-66
2022/03/23 01:35:45;;;;;;;9.50;4.10;;;27.30;99.90;;;;;;5027367;28;20028;-66
2022/03/23 01:38:12;;;;;;;7.25;3.45;;;27.20;99.90;;;;;;5024127;28;20054;-65
2022/03/23 01:40:40;;;;;;;9.27;3.60;;;27.40;99.90;;;;;;5026749;28;20026;-67
2022/03/23 01:43:07;;;;;;;9.52;3.60;;;27.70;99.90;;;;;;5029871;28;20026;-67
2022/03/23 01:45:34;;;;;;;9.18;3.58;;;27.90;99.90;;;;;;5027462;28;20379;-68
2022/03/23 01:48:01;;;;;;;10.85;3.95;;;28.10;99.90;;;;;;5030010;28;20029;-69
2022/03/23 01:50:28;;;;;;;11.18;3.35;;;28.10;99.90;;;;;;5019547;28;20018;-65
2022/03/23 01:52:55;;;;;;;10.52;3.83;;;27.90;99.90;;;;;;5021327;28;20072;-66
2022/03/23 01:55:22;;;;;;;7.93;3.50;;;27.90;99.90;;;;;;5005064;28;20041;-69
2022/03/23 01:57:52;;;;;;;9.50;3.50;;;27.90;99.90;;;;;;5022591;28;20028;-67
2022/03/23 02:00:21;;;;;;;9.25;3.72;;;28.10;99.90;;;;;;5027223;28;20037;-68
2022/03/23 02:02:48;;;;;;;8.25;3.70;;;28.40;99.90;;;;;;5024665;28;20067;-67
2022/03/23 02:05:15;;;;;;;8.38;3.40;;;28.50;99.90;;;;;;5024882;28;20072;-68
2022/03/23 02:07:42;;;;;;;7.53;3.40;;;28.40;99.90;;;;;;5026006;28;20112;-69
2022/03/23 02:10:09;;;;;;;7.93;3.67;;;28.00;99.90;;;;;;5024466;28;20104;-69
2022/03/23 02:12:38;;;;;;;9.48;3.30;;;27.70;99.90;;;;;;5022649;28;20913;-66
2022/03/23 02:15:18;;;;;;;11.80;4.05;;;27.70;99.90;;;;;;5020837;28;20053;-69
2022/03/23 02:17:45;;;;;;;9.63;3.85;;;27.50;99.90;;;;;;5031003;28;20104;-67
2022/03/23 02:20:13;;;;;;;8.30;3.72;;;27.20;99.90;;;;;;5031009;28;20189;-69
2022/03/23 02:22:40;;;;;;;8.63;3.97;;;26.90;99.90;;;;;;5027748;28;20037;-67
2022/03/23 02:25:08;;;;;;;8.90;4.05;;;26.80;99.90;;;;;;5019213;28;20518;-68
2022/03/23 02:27:40;;;;;;;9.90;5.13;;;26.60;99.90;;;;;;5025280;28;20029;-67
2022/03/23 02:30:09;;;;;;;7.30;3.90;;;26.40;99.90;;;;;;5022134;28;20024;-69
2022/03/23 02:32:36;;;;;;;8.15;4.38;;;26.30;99.90;;;;;;5027522;28;20121;-69
2022/03/23 02:35:04;;;;;;;7.97;4.15;;;26.40;99.90;;;;;;5018645;28;21090;-66
2022/03/23 02:37:31;;;;;;;6.57;4.32;;;26.40;99.90;;;;;;5023593;28;20048;-67
2022/03/23 02:39:58;;;;;;;8.50;3.95;;;26.50;99.90;;;;;;5023832;28;20100;-68
2022/03/23 02:42:25;;;;;;;10.23;3.80;;;26.90;99.90;;;;;;5014449;28;20030;-68
2022/03/23 02:44:52;;;;;;;8.32;3.65;;;27.20;99.90;;;;;;5018907;28;20053;-67
2022/03/23 02:47:19;;;;;;;8.57;4.22;;;27.20;99.90;;;;;;5019317;28;20337;-67
2022/03/23 02:49:46;;;;;;;7.30;3.28;;;26.80;99.90;;;;;;5021870;28;20049;-66
2022/03/23 02:52:13;;;;;;;9.60;4.18;;;26.80;99.90;;;;;;5013806;28;20509;-65
2022/03/23 03:03:51;;;;;;;9.27;3.22;;;26.90;99.90;;;;;;5012615;28;20084;-65
2022/03/23 03:06:18;;;;;;;6.88;3.13;;;27.20;99.90;;;;;;5014052;28;20120;-68
2022/03/23 03:08:45;;;;;;;7.25;3.88;;;27.80;99.90;;;;;;5016479;28;20022;-67
2022/03/23 03:11:13;;;;;;;11.20;3.35;;;28.00;99.90;;;;;;5018533;28;20037;-67
2022/03/23 03:13:41;;;;;;;8.30;2.90;;;27.90;99.90;;;;;;5020928;28;20475;-69
2022/03/23 03:16:08;;;;;;;6.10;3.05;;;28.40;99.90;;;;;;5010582;28;20483;-69
2022/03/23 03:18:35;;;;;;;5.97;2.97;;;28.40;99.90;;;;;;5017246;28;20476;-67
2022/03/23 03:21:07;;;;;;;6.95;3.08;;;28.20;99.90;;;;;;5017661;28;20109;-65
2022/03/23 03:23:38;;;;;;;6.25;2.45;;;28.00;99.90;;;;;;5016014;28;20030;-65
2022/03/23 03:26:06;;;;;;;8.10;2.53;;;27.80;99.90;;;;;;5010178;28;20492;-67
2022/03/23 03:28:34;;;;;;;7.25;2.75;;;27.10;99.90;;;;;;5015706;28;20386;-65
2022/03/23 03:31:07;;;;;;;5.75;2.75;;;26.60;99.90;;;;;;5016896;28;20029;-68
2022/03/23 03:33:34;;;;;;;;;;;26.30;99.90;;;;;;5014168;28;20026;-65
2022/03/23 03:36:01;;;;;;;8.07;2.60;;;26.30;99.90;;;;;;5008879;28;20000;-64
2022/03/23 03:38:29;;;;;;;5.13;2.30;;;26.10;99.90;;;;;;5018561;28;20120;-64
2022/03/23 03:40:56;;;;;;;6.78;2.58;;;26.10;99.90;;;;;;5015121;28;20067;-67
2022/03/23 03:43:24;;;;;;;7.68;2.65;;;25.90;99.90;;;;;;5016221;28;20029;-67
2022/03/23 03:45:52;;;;;;;5.88;2.40;;;25.60;99.90;;;;;;5008529;28;20443;-68
2022/03/23 03:48:19;;;;;;;8.70;2.55;;;25.60;99.90;;;;;;5023762;28;20034;-64
2022/03/23 03:50:47;;;;;;;6.50;2.60;;;25.50;99.90;;;;;;5015934;28;20028;-66
2022/03/23 03:53:14;;;;;;;5.53;1.92;;;25.40;99.90;;;;;;5019625;28;20028;-64
2022/03/23 03:55:41;;;;;;;6.45;2.42;;;25.40;99.90;;;;;;5014218;28;20112;-64
2022/03/23 03:58:09;;;;;;;8.32;2.20;;;25.20;99.90;;;;;;5018429;28;20021;-67
2022/03/23 04:00:37;;;;;;;8.80;2.67;;;25.20;99.90;;;;;;5020763;28;20526;-63
2022/03/23 04:03:04;;;;;;;10.35;3.00;;;25.10;99.90;;;;;;5024210;28;20276;-67
2022/03/23 04:05:34;;;;;;;7.88;2.42;;;25.00;99.90;;;;;;5016661;28;20029;-63
2022/03/23 04:08:01;;;;;;;5.93;2.17;;;24.90;99.90;;;;;;5016003;28;20037;-64
2022/03/23 04:10:28;;;;;;;5.55;2.00;;;24.90;99.90;;;;;;5018102;28;20101;-66
2022/03/23 04:12:56;;;;;;;4.22;1.77;;;24.90;99.90;;;;;;5020587;28;20048;-64
2022/03/23 04:15:25;;;;;;;8.40;1.85;;;24.70;99.90;;;;;;5023341;28;20345;-66
2022/03/23 04:17:55;;;;;;;6.13;2.30;;;24.60;99.90;;;;;;5017393;28;20456;-68
2022/03/23 04:20:23;;;;;;;9.85;2.63;;;24.60;99.90;;;;;;5025075;28;20030;-63
2022/03/23 04:22:50;;;;;;;6.22;2.20;;;24.70;99.90;;;;;;5021258;28;20128;-62
2022/03/23 04:25:18;;;;;;;6.30;2.20;;;24.80;99.90;;;;;;5014874;28;20247;-67
2022/03/23 04:27:56;;;;;;;5.30;1.85;;;25.00;99.90;;;;;;5014405;28;20083;-65
2022/03/23 04:30:27;;;;;;;6.00;2.45;;;25.00;99.90;;;;;;5018123;28;20029;-65
2022/03/23 04:32:54;;;;;;;7.38;2.47;;;25.00;99.90;;;;;;5023694;28;20076;-68
2022/03/23 04:35:21;;;;;;;10.52;2.35;;;25.00;99.90;;;;;;5017528;28;20032;-68
2022/03/23 04:37:49;;;;;;;10.98;2.60;;;25.00;99.90;;;;;;5019177;28;20058;-66
2022/03/23 04:40:16;;;;;;;8.40;2.40;;;24.90;99.90;;;;;;5018176;28;20060;-67
2022/03/23 04:42:45;;;;;;;7.90;2.40;;;24.80;99.90;;;;;;5025757;28;20029;-67
2022/03/23 04:45:13;;;;;;;9.75;4.35;;;24.60;99.90;;;;;;5017752;28;20206;-67
2022/03/23 04:47:41;;;;;;;6.00;1.70;;;24.60;99.90;;;;;;5021874;28;20033;-68
2022/03/23 04:50:10;;;;;;;7.05;2.83;;;24.60;99.90;;;;;;5013614;28;20129;-70
2022/03/23 04:52:38;;;;;;;6.80;2.65;;;24.60;99.90;;;;;;5015015;28;20119;-68
2022/03/23 04:55:07;;;;;;;6.82;2.33;;;24.60;99.90;;;;;;5019210;28;20021;-70
2022/03/23 04:57:34;;;;;;;7.72;2.53;;;24.50;99.90;;;;;;5023435;28;20444;-68
2022/03/23 05:00:02;;;;;;;4.47;1.88;;;24.40;99.90;;;;;;5015867;28;20017;-68
2022/03/23 05:02:29;;;;;;;8.98;2.80;;;24.40;99.90;;;;;;5014300;28;20477;-66
2022/03/23 05:04:56;;;;;;;5.55;2.10;;;24.60;99.90;;;;;;5017471;28;20054;-67
2022/03/23 05:07:23;;;;;;;6.03;1.88;;;24.60;99.90;;;;;;5019525;28;20572;-66
2022/03/23 05:09:50;;;;;;;8.55;2.25;;;24.60;99.90;;;;;;5019076;28;20026;-64
2022/03/23 05:12:16;;;;;;;7.57;3.63;;;24.70;99.90;;;;;;5015368;28;20045;-68
2022/03/23 05:14:43;;;;;;;6.15;2.97;;;24.70;99.90;;;;;;5023503;28;20025;-67
2022/03/23 05:17:11;;;;;;;7.85;2.10;;;24.50;99.90;;;;;;5021961;28;20056;-65
2022/03/23 05:19:40;;;;;;;5.68;1.80;;;24.40;99.90;;;;;;5022015;28;20217;-66
2022/03/23 05:22:08;;;;;;;7.88;1.88;;;24.60;99.90;;;;;;5022331;28;20036;-65
2022/03/23 05:24:35;;;;;;;7.05;2.10;;;24.70;99.90;;;;;;5024908;28;20038;-65
2022/03/23 05:27:02;;;;;;;7.20;1.98;;;24.70;99.90;;;;;;5024180;28;20034;-68
2022/03/23 05:29:29;;;;;;;9.00;2.05;;;24.70;99.90;;;;;;5022586;28;20553;-68
2022/03/23 05:31:56;;;;;;;8.65;2.13;;;24.60;99.90;;;;;;5015222;28;20027;-69
2022/03/23 05:34:23;;;;;;;7.05;2.13;;;24.30;99.90;;;;;;5016668;28;20173;-65
2022/03/23 05:36:50;;;;;;;7.07;1.98;;;24.20;99.90;;;;;;5021432;28;20120;-65
2022/03/23 05:39:17;;;;;;;8.90;2.70;;;24.00;99.90;;;;;;5023547;28;20037;-67
2022/03/23 05:41:44;;;;;;;5.95;1.60;;;23.90;99.90;;;;;;5025567;28;20033;-69
2022/03/23 05:44:11;;;;;;;9.40;2.10;;;23.80;99.90;;;;;;5022443;28;20500;-65
2022/03/23 05:46:38;;;;;;;6.53;2.10;;;23.80;99.90;;;;;;5026021;28;20472;-65
2022/03/23 05:49:05;;;;;;;7.95;2.13;;;23.60;99.90;;;;;;5023098;28;20044;-67
2022/03/23 05:51:32;;;;;;;10.85;2.88;;;23.50;99.90;;;;;;5023798;28;20030;-65
2022/03/23 05:53:59;;;;;;;7.75;2.08;;;23.40;99.90;;;;;;5020757;28;20025;-65
2022/03/23 05:56:26;;;;;;;6.80;2.08;;;23.30;99.90;;;;;;5023871;28;20017;-68
2022/03/23 05:58:54;;;;;;;8.32;2.47;;;23.20;99.90;;;;;;5022445;28;20064;-67
2022/03/23 06:01:21;;;;;;;7.15;1.85;;;23.10;99.90;;;;;;5023387;28;20153;-65
2022/03/23 06:03:49;;;;;;;6.20;2.58;;;23.10;99.90;;;;;;5021323;28;20068;-73
2022/03/23 06:06:17;;;;;;;5.55;1.88;;;23.10;99.90;;;;;;5003251;28;20471;-72
2022/03/23 06:08:44;;;;;;;10.57;3.88;;;23.00;99.90;;;;;;5024280;28;20033;-71
2022/03/23 06:11:11;;;;;;;6.28;2.25;;;23.00;99.90;;;;;;5024640;28;20076;-74
2022/03/23 06:13:38;;;;;;;15.63;6.75;;;23.00;99.90;;;;;;5020950;28;20048;-76
2022/03/23 06:16:06;;;;;;;13.85;1.85;;;23.00;99.90;;;;;;5023782;28;20022;-75
2022/03/23 06:18:33;;;;;;;5.18;1.88;;;23.00;99.90;;;;;;5020585;28;20492;-73
2022/03/23 06:21:00;;;;;;;10.50;3.25;;;22.90;99.90;;;;;;5022428;28;20032;-73
2022/03/23 06:23:27;;;;;;;6.30;2.15;;;22.70;99.90;;;;;;5023938;28;20411;-71
2022/03/23 06:25:55;;;;;;;11.75;2.50;;;22.60;99.90;;;;;;5023891;28;20503;-69
2022/03/23 06:28:23;;;;;;;9.30;2.30;;;22.60;99.90;;;;;;5022367;28;20078;-75
2022/03/23 06:30:51;;;;;;;5.70;1.70;;;22.50;99.90;;;;;;5023144;28;20045;-65
2022/03/23 06:33:20;;;;;;;14.32;2.83;;;22.50;99.90;;;;;;5019582;28;20475;-65
2022/03/23 06:35:47;;;;;;;11.50;2.67;;;22.50;99.90;;;;;;5023308;28;20029;-74
2022/03/23 06:38:14;;;;;;;11.65;2.40;;;22.50;99.90;;;;;;5022670;28;20099;-70
2022/03/23 06:40:41;;;;;;;7.18;2.08;;;22.40;99.90;;;;;;5022818;28;20307;-64
2022/03/23 06:43:09;;;;;;;7.72;2.50;;;22.50;99.90;;;;;;5022206;28;20060;-71
2022/03/23 06:45:36;;;;;;;8.70;2.78;;;22.40;99.90;;;;;;5023530;28;20037;-70
2022/03/23 06:48:04;;;;;;;11.60;2.15;;;22.40;99.90;;;;;;5022286;28;20029;-65
2022/03/23 06:50:31;;;;;;;11.23;1.98;;;22.40;99.90;;;;;;5021974;28;20025;-71
2022/03/23 06:52:58;;;;;;;8.80;2.20;;;22.30;99.90;;;;;;5018778;28;20124;-68
2022/03/23 06:55:25;;;;;;;9.38;2.25;;;22.20;99.90;;;;;;5005540;28;20456;-66
2022/03/23 06:57:52;;;;;;;6.40;2.00;;;22.20;99.90;;;;;;5022661;28;20177;-69
2022/03/23 07:00:19;;;;;;;9.20;2.72;;;22.10;99.90;;;;;;5022616;28;20116;-64
2022/03/23 07:02:48;;;;;;;11.55;2.17;;;22.10;99.90;;;;;;5021196;28;20744;-71
2022/03/23 07:05:18;;;;;;;7.07;2.78;;;22.00;99.90;;;;;;5024535;28;20029;-66
2022/03/23 07:10:32;;;;;;;10.27;2.22;;;22.00;99.90;;;;;;5024622;28;20037;-69
2022/03/23 07:12:59;;;;;;;7.85;2.13;;;21.90;99.90;;;;;;5023256;28;20029;-66
2022/03/23 07:15:26;;;;;;;10.00;2.78;;;21.80;99.90;;;;;;5021861;28;20027;-68
2022/03/23 07:17:53;;;;;;;12.07;2.10;;;21.80;99.90;;;;;;5021622;28;20478;-67
2022/03/23 07:20:20;;;;;;;5.90;1.88;;;21.80;99.90;;;;;;5023952;28;20033;-69
2022/03/23 07:22:48;;;;;;;7.93;2.70;;;21.90;99.90;;;;;;4330481;28;10000727;-69
2022/03/23 07:25:15;;;;;;;8.77;2.47;;;21.80;99.90;;;;;;5021352;28;20051;-66
2022/03/23 07:27:41;;;;;;;11.25;2.22;;;21.80;99.90;;;;;;5019982;28;20061;-65
2022/03/23 07:30:09;;;;;;;11.02;2.45;;;21.80;99.90;;;;;;5021197;28;20536;-66
2022/03/23 07:32:38;;;;;;;8.55;2.10;;;21.80;99.90;;;;;;5018422;28;20257;-65
2022/03/23 07:35:06;;;;;;;10.25;2.60;;;21.90;99.90;;;;;;5017548;28;20030;-66
2022/03/23 07:37:33;;;;;;;10.20;2.17;;;21.90;99.90;;;;;;5023385;28;20041;-68
2022/03/23 07:40:01;;;;;;;8.60;2.60;;;21.90;99.90;;;;;;5019665;28;20098;-65
2022/03/23 07:42:28;;;;;;;8.75;2.85;;;21.90;99.90;;;;;;5020316;28;20118;-64
2022/03/23 07:44:55;;;;;;;10.18;2.83;;;21.90;99.90;;;;;;5019828;28;20325;-65
2022/03/23 07:47:22;;;;;;;7.82;2.25;;;21.90;99.90;;;;;;5020188;28;20033;-64
2022/03/23 07:49:49;;;;;;;9.13;2.58;;;22.00;99.90;;;;;;5020839;28;20311;-65
2022/03/23 07:52:18;;;;;;;8.35;2.35;;;22.00;99.90;;;;;;5017580;28;20578;-68
2022/03/23 07:54:46;;;;;;;10.55;2.40;;;22.00;99.90;;;;;;5020471;28;20029;-65
2022/03/23 07:57:13;;;;;;;13.65;2.92;;;22.00;99.90;;;;;;5019442;28;20065;-74
2022/03/23 07:59:40;;;;;;;9.07;2.15;;;21.90;99.90;;;;;;5018898;28;20488;-66
2022/03/23 08:02:08;;;;;;;11.50;2.58;;;21.90;99.90;;;;;;5018110;28;20033;-69
2022/03/23 08:04:35;;;;;;;11.18;2.00;;;22.00;99.90;;;;;;5019689;28;20123;-65
2022/03/23 08:07:03;;;;;;;11.68;2.60;;;22.00;99.90;;;;;;5020193;28;20036;-69
2022/03/23 08:09:30;;;;;;;9.27;2.10;;;22.00;99.90;;;;;;5018301;28;20136;-68
2022/03/23 08:11:58;;;;;;;9.63;2.40;;;22.00;99.90;;;;;;5019612;28;20443;-66
2022/03/23 08:14:25;;;;;;;13.20;2.75;;;21.90;99.90;;;;;;5015093;28;20104;-65
2022/03/23 08:16:52;;;;;;;11.82;2.35;;;21.90;99.90;;;;;;5018345;28;20052;-66
2022/03/23 08:19:23;;;;;;;8.63;2.47;;;22.00;99.90;;;;;;5017529;28;20044;-70
2022/03/23 08:21:52;;;;;;;9.90;2.90;;;22.00;99.90;;;;;;5017760;28;20034;-68
2022/03/23 08:24:19;;;;;;;6.85;2.00;;;22.00;99.90;;;;;;5014815;28;20407;-68
2022/03/23 08:26:46;;;;;;;12.25;2.28;;;22.00;99.90;;;;;;5019119;28;20072;-71
2022/03/23 08:29:14;;;;;;;10.35;2.33;;;21.90;99.90;;;;;;5016248;28;20040;-69
2022/03/23 08:31:41;;;;;;;7.82;2.60;;;22.00;99.90;;;;;;5016451;28;20053;-69
2022/03/23 08:34:08;;;;;;;7.78;2.10;;;22.00;99.90;;;;;;5013567;28;20136;-68
2022/03/23 08:36:35;;;;;;;9.63;2.00;;;22.00;99.90;;;;;;5018106;28;20539;-65
2022/03/23 08:39:02;;;;;;;8.30;2.72;;;22.00;99.90;;;;;;5022171;28;20132;-65
2022/03/23 08:41:29;;;;;;;8.18;2.72;;;21.90;99.90;;;;;;5015159;28;20516;-65
2022/03/23 08:43:56;;;;;;;12.85;2.60;;;21.90;99.90;;;;;;5014181;28;20033;-70
2022/03/23 08:46:25;;;;;;;9.68;2.90;;;21.90;99.90;;;;;;5013997;28;20103;-67
2022/03/23 08:48:52;;;;;;;8.95;2.25;;;21.90;99.90;;;;;;5014646;28;20081;-70
2022/03/23 08:51:19;;;;;;;14.68;4.57;;;22.00;99.90;;;;;;5016498;28;20121;-66
2022/03/23 08:53:46;;;;;;;13.18;7.88;;;21.90;99.90;;;;;;5018338;28;20080;-65
2022/03/23 08:56:13;;;;;;;11.68;4.00;;;21.90;99.90;;;;;;5017410;28;20013;-66
2022/03/23 08:58:49;;;;;;;10.60;2.85;;;21.90;99.90;;;;;;5014792;28;20033;-68
2022/03/23 09:01:18;;;;;;;11.23;3.55;;;21.90;99.90;;;;;;5015233;28;20029;-67
2022/03/23 09:03:45;;;;;;;11.52;2.72;;;21.90;99.90;;;;;;5016059;28;20041;-69
2022/03/23 09:06:13;;;;;;;9.25;2.33;;;21.90;99.90;;;;;;5019093;28;20082;-66
2022/03/23 09:08:39;;;;;;;9.75;2.65;;;21.90;99.90;;;;;;5021019;28;20040;-68
2022/03/23 09:11:06;;;;;;;14.65;2.72;;;21.80;99.90;;;;;;5018646;28;20365;-70
2022/03/23 09:13:34;;;;;;;14.10;3.92;;;21.80;99.90;;;;;;5021683;28;20025;-67
2022/03/23 09:16:01;;;;;;;11.93;3.33;;;21.80;99.90;;;;;;5019846;28;20099;-67
2022/03/23 09:18:28;;;;;;;11.18;2.45;;;21.70;99.90;;;;;;5023173;28;20071;-67
2022/03/23 09:20:56;;;;;;;12.93;3.50;;;21.60;99.90;;;;;;5022486;28;20354;-69
2022/03/23 09:23:23;;;;;;;12.65;3.60;;;21.50;99.90;;;;;;5020633;28;20399;-69
2022/03/23 09:25:50;;;;;;;12.50;4.55;;;21.50;99.90;;;;;;5023491;28;20053;-70
2022/03/23 09:28:17;;;;;;;11.70;3.60;;;21.40;99.90;;;;;;5016370;28;20029;-67
2022/03/23 09:30:46;;;;;;;12.95;3.38;;;21.50;99.90;;;;;;5032262;28;20056;-69
2022/03/23 09:33:13;;;;;;;10.75;2.75;;;21.40;99.90;;;;;;5026589;28;20395;-67
2022/03/23 09:35:40;;;;;;;10.13;2.95;;;21.40;99.90;;;;;;5023472;28;20041;-68
2022/03/23 09:38:08;;;;;;;11.93;2.65;;;21.30;99.90;;;;;;5016488;28;20072;-66
2022/03/23 09:40:35;;;;;;;11.15;3.15;;;21.30;99.90;;;;;;5023780;28;20104;-66
2022/03/23 09:43:08;;;;;;;11.15;3.33;;;21.30;99.90;;;;;;5018230;28;20133;-67
2022/03/23 09:48:14;;;;;;;12.55;2.85;;;21.20;99.90;;;;;;5010088;28;20056;-66
2022/03/23 09:50:47;;;;;;;13.10;3.95;;;21.30;99.90;;;;;;5020061;28;20037;-66
2022/03/23 09:53:15;;;;;;;15.60;7.03;;;21.30;99.90;;;;;;5020609;28;20025;-65
2022/03/23 09:55:44;;;;;;;12.00;3.50;;;21.20;99.90;;;;;;5003933;28;20068;-67
2022/03/23 09:58:11;;;;;;;13.70;3.15;;;21.30;99.90;;;;;;5018118;28;20033;-65
2022/03/23 10:00:44;;;;;;;15.48;3.95;;;21.20;99.90;;;;;;5001485;28;20230;-66
2022/03/23 10:03:10;;;;;;;;;;;21.20;99.90;;;;;;5022100;28;20034;-65
2022/03/23 10:06:02;;;;;;;14.30;3.08;;;21.10;99.90;;;;;;4998796;28;19916;-64
2022/03/23 10:09:06;;;;;;;12.68;3.10;;;21.10;99.90;;;;;;5023729;28;20038;-65
2022/03/23 10:12:09;;;;;;;12.75;2.80;;;21.00;99.90;;;;;;5020572;28;20112;-64
2022/03/23 10:14:54;;;;;;;14.25;3.78;;;21.00;99.90;;;;;;5018317;28;20025;-66
2022/03/23 10:17:30;;;;;;;17.38;3.60;;;21.00;99.90;;;;;;5002210;28;20029;-65
2022/03/23 10:19:58;;;;;;;16.50;3.72;;;21.00;99.90;;;;;;5021610;28;20030;-66
2022/03/23 10:22:28;;;;;;;15.30;3.38;;;21.00;99.90;;;;;;5014939;28;20029;-64
2022/03/23 10:24:55;;;;;;;10.40;3.25;;;21.00;99.90;;;;;;5014874;28;20276;-64
2022/03/23 10:27:25;;;;;;;11.23;2.88;;;21.00;99.90;;;;;;5008388;28;20060;-65
2022/03/23 10:29:53;;;;;;;13.27;4.00;;;21.00;99.90;;;;;;5020110;28;20037;-65
2022/03/23 10:32:23;;;;;;;13.85;3.78;;;21.00;99.90;;;;;;5012012;28;20034;-65
2022/03/23 10:34:53;;;;;;;14.15;3.33;;;20.90;99.90;;;;;;5020451;28;20022;-67
2022/03/23 10:37:29;;;;;;;10.65;3.30;;;20.90;99.90;;;;;;5028593;23;20357;-66
2022/03/23 10:39:59;;;;;;;15.05;3.42;;;20.90;99.90;;;;;;5031748;28;20026;-66
2022/03/23 10:42:28;;;;;;;13.75;3.83;;;20.80;99.90;;;;;;5040474;28;20494;-65
2022/03/23 10:45:09;;;;;;;13.50;3.45;;;20.90;99.90;;;;;;5035476;28;20055;-66
2022/03/23 10:47:38;;;;;;;12.35;3.53;;;20.80;99.90;;;;;;5032824;28;20025;-66
2022/03/23 10:50:13;;;;;;;15.40;3.65;;;20.80;99.90;;;;;;5030793;28;20045;-66
2022/03/23 10:53:01;;;;;;;13.18;3.83;;;20.80;99.90;;;;;;5032934;28;20380;-65
2022/03/23 10:55:30;;;;;;;12.90;3.40;;;20.80;99.90;;;;;;5034375;28;20025;-66
2022/03/23 10:58:03;;;;;;;12.05;3.10;;;20.70;99.90;;;;;;5043224;28;20129;-66
2022/03/23 11:00:36;;;;;;;15.90;3.60;;;20.80;99.90;;;;;;5036295;28;20104;-64
2022/03/23 11:03:06;;;;;;;11.73;2.83;;;20.60;99.90;;;;;;5034059;28;20476;-66
2022/03/23 11:05:43;;;;;;;11.65;3.15;;;20.60;99.90;;;;;;5035929;28;20032;-65
2022/03/23 11:08:23;;;;;;;13.27;2.75;;;20.70;99.90;;;;;;5028383;28;20088;-65
2022/03/23 11:16:51;;;;;;;14.07;3.70;;;20.80;99.90;;;;;;5034931;28;20033;-66
2022/03/23 11:19:19;;;;;;;8.32;2.40;;;20.80;99.90;;;;;;5028120;28;20485;-65
2022/03/23 11:22:06;;;;;;;10.32;2.53;;;20.80;99.90;;;;;;5035713;28;20021;-66
2022/03/23 11:24:40;;;;;;;11.45;2.90;;;20.70;99.90;;;;;;5034770;28;20336;-66
2022/03/23 11:27:10;;;;;;;10.73;2.85;;;20.70;99.90;;;;;;5030386;28;20038;-64
2022/03/23 11:29:39;;;;;;;9.82;2.85;;;20.70;99.90;;;;;;5032738;28;20074;-64
2022/03/23 11:32:12;;;;;;;12.50;2.80;;;20.80;99.90;;;;;;5033352;28;20017;-65
2022/03/23 11:34:40;;;;;;;11.60;3.05;;;20.70;99.90;;;;;;5030974;28;20032;-65
2022/03/23 11:37:08;;;;;;;11.43;2.70;;;20.70;99.90;;;;;;5031037;28;20184;-64
2022/03/23 11:39:39;;;;;;;10.43;2.75;;;20.60;99.90;;;;;;5036726;28;20025;-64
2022/03/23 11:42:06;;;;;;;12.48;3.35;;;20.60;99.90;;;;;;5032393;28;20040;-65
2022/03/23 11:44:36;;;;;;;12.55;2.90;;;20.60;99.90;;;;;;5038421;28;20024;-65
2022/03/23 11:47:07;;;;;;;9.57;3.28;;;20.70;99.90;;;;;;5033002;28;20037;-65
2022/03/23 11:49:51;;;;;;;12.52;3.25;;;20.80;99.90;;;;;;5031266;28;20033;-66
2022/03/23 11:52:46;;;;;;;15.07;3.65;;;20.80;99.90;;;;;;5037089;28;20116;-65
2022/03/23 11:55:51;;;;;;;10.07;2.55;;;20.80;99.90;;;;;;5039183;28;20021;-65
2022/03/23 11:58:23;;;;;;;13.70;2.63;;;20.60;99.90;;;;;;4972866;28;20460;-66
2022/03/23 12:00:52;;;;;;;11.98;3.15;;;20.50;99.90;;;;;;4981766;28;20038;-66
2022/03/23 12:03:48;;;;;;;9.68;2.90;;;20.60;99.90;;;;;;4978905;28;20061;-65
2022/03/23 12:06:20;;;;;;;12.00;3.80;;;20.50;99.90;;;;;;4972189;28;20043;-70
2022/03/23 12:08:47;;;;;;;;;;;20.40;99.90;;;;;;4972173;28;20100;-65
2022/03/23 12:11:45;;;;;;;14.10;2.80;;;20.40;99.90;;;;;;4979973;28;19918;-67
2022/03/23 12:14:35;;;;;;;11.48;3.85;;;20.30;99.90;;;;;;4976805;28;20022;-66
2022/03/23 12:17:04;;;;;;;8.93;3.15;;;20.20;99.90;;;;;;4981044;28;20025;-68
2022/03/23 12:19:51;;;;;;;12.48;3.88;;;20.20;99.90;;;;;;4979091;28;20442;-68
2022/03/23 12:22:34;;;;;;;15.68;4.28;;;20.20;99.90;;;;;;4980378;28;20048;-68
2022/03/23 12:25:24;;;;;;;24.05;12.80;;;20.20;99.90;;;;;;4980966;28;20030;-68
2022/03/23 12:28:18;;;;;;;15.18;3.58;;;20.20;99.90;;;;;;4973201;28;20045;-67
2022/03/23 12:30:57;;;;;;;16.23;3.35;;;20.20;99.90;;;;;;4974940;28;20071;-64
2022/03/23 12:33:29;;;;;;;12.27;3.65;;;20.10;99.90;;;;;;4980068;28;20448;-63
2022/03/23 12:36:01;;;;;;;9.37;2.87;;;20.00;99.90;;;;;;5032647;28;20113;-66
2022/03/23 12:38:29;;;;;;;12.38;2.95;;;20.00;99.90;;;;;;5033483;28;20286;-65
2022/03/23 12:41:01;;;;;;;15.07;4.32;;;20.00;99.90;;;;;;5043352;28;20483;-64
2022/03/23 12:43:46;;;;;;;14.50;3.35;;;20.10;99.90;;;;;;5037613;28;20032;-66
2022/03/23 12:46:26;;;;;;;11.93;2.95;;;20.10;99.90;;;;;;5036994;28;20033;-68
2022/03/23 12:57:49;;;;;;;13.63;3.35;;;19.90;99.90;;;;;;5038033;28;20121;-65
2022/03/23 13:00:32;;;;;;;11.40;3.28;;;19.90;99.90;;;;;;5037077;28;20112;-70
2022/03/23 13:03:08;;;;;;;16.95;3.08;;;20.00;99.90;;;;;;5034631;28;20026;-66
2022/03/23 13:05:37;;;;;;;14.35;3.33;;;20.00;99.90;;;;;;5031729;28;20087;-66
2022/03/23 13:09:02;;;;;;;15.05;3.10;;;20.00;99.90;;;;;;5037348;28;20034;-68
2022/03/23 13:11:34;;;;;;;11.40;3.58;;;20.00;99.90;;;;;;5029401;28;20120;-65
2022/03/23 13:14:02;;;;;;;15.70;3.78;;;20.00;99.90;;;;;;5040582;28;20017;-65
2022/03/23 13:16:31;;;;;;;13.10;3.63;;;20.00;99.90;;;;;;5032282;28;20479;-68
2022/03/23 13:19:01;;;;;;;11.30;2.72;;;20.00;99.90;;;;;;5042178;28;20055;-66
2022/03/23 13:21:31;;;;;;;11.52;2.90;;;19.90;99.90;;;;;;5043471;28;20029;-66
2022/03/23 13:24:07;;;;;;;12.75;3.42;;;19.90;99.90;;;;;;5035338;28;20044;-65